Time;durP1;ratioP1;P1;durP2;ratioP2;P2;SDS_P1;SDS_P2;PMS_P1;PMS_P2;Temp;Humidity;BMP_temperature;BMP_pressure;BME280_temperature;BME280_humidity;BME280_pressure;Samples;Min_cycle;Max_cycle;Signal;HPM_P1;HPM_P2
2023/07/07 00:01:54;;;;;;;;;;;;;;;;;;5021983;28;93012;-71
2023/07/07 00:04:20;;;;;;;;;;;;;;;;;;5018928;28;93116;-71
2023/07/07 00:06:46;;;;;;;;;;;;;;;;;;5019761;28;93707;-70
2023/07/07 00:09:11;;;;;;;;;;;;;;;;;;5020351;28;92992;-71
2023/07/07 00:11:36;;;;;;;;;;;;;;;;;;5017948;28;92656;-69
2023/07/07 00:14:02;;;;;;;;;;;;;;;;;;5020373;28;93478;-69
2023/07/07 00:16:28;;;;;;;;;;;;;;;;;;5016497;27;92827;-69
2023/07/07 00:18:57;;;;;;;;;;;;;;;;;;5023903;28;93232;-69
2023/07/07 00:21:24;;;;;;;;;;;;;;;;;;5020759;28;92877;-70
2023/07/07 00:23:53;;;;;;;;;;;;;;;;;;5012452;28;92308;-70
2023/07/07 00:26:19;;;;;;;;;;;;;;;;;;5021386;27;93759;-70
2023/07/07 00:28:44;;;;;;;;;;;;;;;;;;5022140;28;92809;-69
2023/07/07 00:31:09;;;;;;;;;;;;;;;;;;5022323;28;91983;-69
2023/07/07 00:33:34;;;;;;;;;;;;;;;;;;5015917;28;92261;-69
2023/07/07 00:35:59;;;;;;;;;;;;;;;;;;5020108;28;93611;-71
2023/07/07 00:38:25;;;;;;;;;;;;;;;;;;5020505;28;93191;-71
2023/07/07 00:40:52;;;;;;;;;;;;;;;;;;5018805;28;93317;-71
2023/07/07 00:43:18;;;;;;;;;;;;;;;;;;5017379;28;92417;-70
2023/07/07 00:45:43;;;;;;;;;;;;;;;;;;5020966;28;93871;-71
2023/07/07 00:48:19;;;;;;;;;;;;;;;;;;5017566;28;92901;-71
2023/07/07 00:50:56;;;;;;;;;;;;;;;;;;5015981;28;92283;-71
2023/07/07 00:53:21;;;;;;;;;;;;;;;;;;5020847;27;93133;-72
2023/07/07 00:55:49;;;;;;;;;;;;;;;;;;5020578;27;92536;-71
2023/07/07 00:58:16;;;;;;;;;;;;;;;;;;5019329;28;94144;-71
2023/07/07 01:00:44;;;;;;;;;;;;;;;;;;5016106;27;92759;-72
2023/07/07 01:03:13;;;;;;;;;;;;;;;;;;5020663;28;96465;-71
2023/07/07 01:05:39;;;;;;;;;;;;;;;;;;5018029;28;93101;-71
2023/07/07 01:08:06;;;;;;;;;;;;;;;;;;5019327;28;92567;-71
2023/07/07 01:10:31;;;;;;;;;;;;;;;;;;5018379;28;92253;-71
2023/07/07 01:12:56;;;;;;;;;;;;;;;;;;5020536;27;94111;-70
2023/07/07 01:15:23;;;;;;;;;;;;;;;;;;5019009;28;93587;-71
2023/07/07 01:17:55;;;;;;;;;;;;;;;;;;5020137;27;93127;-71
2023/07/07 01:20:25;;;;;;;;;;;;;;;;;;5018841;28;92723;-71
2023/07/07 01:23:08;;;;;;;;;;;;;;;;;;5020449;27;93552;-71
2023/07/07 01:25:40;;;;;;;;;;;;;;;;;;5024516;28;93369;-70
2023/07/07 01:28:20;;;;;;;;;;;;;;;;;;5022064;28;94264;-71
2023/07/07 01:30:47;;;;;;;;;;;;;;;;;;5019525;28;92856;-71
2023/07/07 01:33:18;;;;;;;;;;;;;;;;;;5023289;27;93698;-71
2023/07/07 01:35:43;;;;;;;;;;;;;;;;;;5021039;28;93078;-71
2023/07/07 01:38:27;;;;;;;;;;;;;;;;;;5019927;28;94048;-71
2023/07/07 01:40:56;;;;;;;;;;;;;;;;;;5018740;28;92684;-71
2023/07/07 01:43:25;;;;;;;;;;;;;;;;;;5039793;27;95300;-71
2023/07/07 01:45:55;;;;;;;;;;;;;;;;;;5021520;27;91721;-71
2023/07/07 01:48:26;;;;;;;;;;;;;;;;;;5021980;27;93962;-70
2023/07/07 01:50:52;;;;;;;;;;;;;;;;;;5020514;28;92870;-71
2023/07/07 01:53:20;;;;;;;;;;;;;;;;;;5024547;27;93957;-71
2023/07/07 01:55:51;;;;;;;;;;;;;;;;;;5024005;27;92699;-71
2023/07/07 01:58:18;;;;;;;;;;;;;;;;;;5022655;28;93198;-71
2023/07/07 02:00:43;;;;;;;;;;;;;;;;;;5024052;27;93698;-71
2023/07/07 02:03:10;;;;;;;;;;;;;;;;;;5021472;27;93730;-71
2023/07/07 02:05:35;;;;;;;;;;;;;;;;;;5020618;28;92449;-71
2023/07/07 02:08:00;;;;;;;;;;;;;;;;;;5020246;28;92895;-71
2023/07/07 02:10:25;;;;;;;;;;;;;;;;;;5024657;28;91987;-71
2023/07/07 02:12:51;;;;;;;;;;;;;;;;;;5021687;28;92301;-71
2023/07/07 02:15:16;;;;;;;;;;;;;;;;;;5018539;28;94154;-71
2023/07/07 02:17:41;;;;;;;;;;;;;;;;;;5021975;28;93412;-71
2023/07/07 02:20:08;;;;;;;;;;;;;;;;;;5024067;28;93422;-70
2023/07/07 02:22:33;;;;;;;;;;;;;;;;;;5018820;28;93008;-70
2023/07/07 02:24:59;;;;;;;;;;;;;;;;;;5019104;27;92424;-70
2023/07/07 02:27:24;;;;;;;;;;;;;;;;;;5023069;28;95189;-71
2023/07/07 02:29:49;;;;;;;;;;;;;;;;;;5018065;28;95456;-69
2023/07/07 02:32:14;;;;;;;;;;;;;;;;;;5021660;28;93221;-69
2023/07/07 02:34:40;;;;;;;;;;;;;;;;;;5021280;28;91487;-69
2023/07/07 02:37:12;;;;;;;;;;;;;;;;;;5024854;28;92287;-69
2023/07/07 02:39:38;;;;;;;;;;;;;;;;;;5020067;28;92703;-70
2023/07/07 02:42:03;;;;;;;;;;;;;;;;;;5015229;27;97018;-69
2023/07/07 02:44:28;;;;;;;;;;;;;;;;;;5022330;28;92993;-69
2023/07/07 02:46:53;;;;;;;;;;;;;;;;;;5020838;28;93670;-70
2023/07/07 02:49:19;;;;;;;;;;;;;;;;;;5023392;28;92889;-71
2023/07/07 02:51:44;;;;;;;;;;;;;;;;;;5022771;28;92478;-71
2023/07/07 02:54:10;;;;;;;;;;;;;;;;;;5018501;28;93022;-71
2023/07/07 02:56:35;;;;;;;;;;;;;;;;;;5023448;28;92465;-71
2023/07/07 02:59:00;;;;;;;;;;;;;;;;;;5022693;27;92745;-70
2023/07/07 03:01:25;;;;;;;;;;;;;;;;;;5020786;28;92936;-71
2023/07/07 03:03:51;;;;;;;;;;;;;;;;;;5019523;28;92706;-71
2023/07/07 03:06:22;;;;;;;;;;;;;;;;;;5022383;28;94082;-70
2023/07/07 03:08:48;;;;;;;;;;;;;;;;;;5021410;28;92867;-71
2023/07/07 03:11:14;;;;;;;;;;;;;;;;;;5020603;27;92822;-70
2023/07/07 03:13:40;;;;;;;;;;;;;;;;;;5023863;28;92784;-71
2023/07/07 03:16:13;;;;;;;;;;;;;;;;;;5019597;27;92335;-70
2023/07/07 03:18:39;;;;;;;;;;;;;;;;;;5018261;28;92967;-71
2023/07/07 03:21:05;;;;;;;;;;;;;;;;;;5019795;27;92871;-70
2023/07/07 03:23:30;;;;;;;;;;;;;;;;;;5021214;28;91520;-71
2023/07/07 03:25:55;;;;;;;;;;;;;;;;;;5019613;28;92476;-71
2023/07/07 03:28:20;;;;;;;;;;;;;;;;;;5017498;27;92952;-71
2023/07/07 03:30:46;;;;;;;;;;;;;;;;;;5016781;28;94032;-71
2023/07/07 03:33:13;;;;;;;;;;;;;;;;;;5019288;27;96866;-71
2023/07/07 03:35:39;;;;;;;;;;;;;;;;;;5025185;27;93370;-69
2023/07/07 03:38:04;;;;;;;;;;;;;;;;;;5019571;28;92599;-70
2023/07/07 03:40:29;;;;;;;;;;;;;;;;;;5022990;28;92980;-71
2023/07/07 03:42:54;;;;;;;;;;;;;;;;;;5020747;28;93107;-71
2023/07/07 03:45:19;;;;;;;;;;;;;;;;;;5020922;28;92883;-70
2023/07/07 03:47:45;;;;;;;;;;;;;;;;;;5022365;28;92133;-70
2023/07/07 03:50:10;;;;;;;;;;;;;;;;;;5023015;28;92785;-71
2023/07/07 03:52:35;;;;;;;;;;;;;;;;;;5013836;28;92626;-70
2023/07/07 03:55:01;;;;;;;;;;;;;;;;;;5017004;28;94980;-67
2023/07/07 03:57:26;;;;;;;;;;;;;;;;;;5022237;27;92150;-69
2023/07/07 03:59:52;;;;;;;;;;;;;;;;;;5021351;28;92967;-69
2023/07/07 04:02:17;;;;;;;;;;;;;;;;;;5014964;27;92593;-69
2023/07/07 04:04:42;;;;;;;;;;;;;;;;;;5014012;28;92759;-69
2023/07/07 04:07:07;;;;;;;;;;;;;;;;;;5022978;28;92948;-69
2023/07/07 04:09:33;;;;;;;;;;;;;;;;;;5018516;28;92340;-69
2023/07/07 04:11:58;;;;;;;;;;;;;;;;;;5020182;28;92681;-69
2023/07/07 04:14:27;;;;;;;;;;;;;;;;;;5017890;28;93419;-69
2023/07/07 04:16:52;;;;;;;;;;;;;;;;;;5022883;28;92373;-69
2023/07/07 04:19:18;;;;;;;;;;;;;;;;;;5017471;28;93831;-69
2023/07/07 04:21:43;;;;;;;;;;;;;;;;;;5017426;27;92306;-70
2023/07/07 04:24:08;;;;;;;;;;;;;;;;;;5018441;28;92969;-69
2023/07/07 04:26:33;;;;;;;;;;;;;;;;;;5022040;28;93079;-70
2023/07/07 04:28:59;;;;;;;;;;;;;;;;;;5018291;27;92830;-69
2023/07/07 04:31:25;;;;;;;;;;;;;;;;;;5016107;28;92668;-69
2023/07/07 04:33:51;;;;;;;;;;;;;;;;;;5020749;28;93149;-69
2023/07/07 04:36:17;;;;;;;;;;;;;;;;;;5021274;27;92919;-69
2023/07/07 04:38:42;;;;;;;;;;;;;;;;;;5021951;28;92736;-69
2023/07/07 04:41:19;;;;;;;;;;;;;;;;;;5023783;27;93102;-70
2023/07/07 04:43:45;;;;;;;;;;;;;;;;;;5008813;28;94128;-70
2023/07/07 04:46:11;;;;;;;;;;;;;;;;;;5012713;28;93047;-71
2023/07/07 04:48:37;;;;;;;;;;;;;;;;;;5021030;28;92946;-70
2023/07/07 04:51:06;;;;;;;;;;;;;;;;;;5018282;27;92701;-68
2023/07/07 04:53:31;;;;;;;;;;;;;;;;;;5020521;28;92837;-69
2023/07/07 04:55:57;;;;;;;;;;;;;;;;;;5019265;27;92793;-70
2023/07/07 04:58:25;;;;;;;;;;;;;;;;;;5017718;27;94880;-69
2023/07/07 05:00:52;;;;;;;;;;;;;;;;;;5017127;28;91937;-70
2023/07/07 05:03:17;;;;;;;;;;;;;;;;;;5021891;27;92724;-70
2023/07/07 05:05:42;;;;;;;;;;;;;;;;;;5021360;28;93303;-70
2023/07/07 05:08:07;;;;;;;;;;;;;;;;;;5017194;28;93894;-70
2023/07/07 05:10:33;;;;;;;;;;;;;;;;;;5019853;28;93308;-70
2023/07/07 05:12:58;;;;;;;;;;;;;;;;;;5017676;28;93317;-70
2023/07/07 05:15:23;;;;;;;;;;;;;;;;;;5015614;28;93384;-70
2023/07/07 05:17:50;;;;;;;;;;;;;;;;;;5020994;27;93217;-70
2023/07/07 05:20:15;;;;;;;;;;;;;;;;;;5021080;28;94493;-70
2023/07/07 05:22:40;;;;;;;;;;;;;;;;;;5028584;27;92589;-70
2023/07/07 05:25:06;;;;;;;;;;;;;;;;;;5018847;28;92050;-70
2023/07/07 05:27:31;;;;;;;;;;;;;;;;;;5018493;28;92605;-70
2023/07/07 05:29:56;;;;;;;;;;;;;;;;;;5018394;28;92715;-70
2023/07/07 05:32:21;;;;;;;;;;;;;;;;;;5017046;28;93925;-70
2023/07/07 05:34:49;;;;;;;;;;;;;;;;;;5015433;28;92331;-70
2023/07/07 05:37:14;;;;;;;;;;;;;;;;;;5020366;28;92714;-70
2023/07/07 05:39:39;;;;;;;;;;;;;;;;;;5020126;28;92856;-70
2023/07/07 05:42:04;;;;;;;;;;;;;;;;;;5020289;28;92422;-71
2023/07/07 05:44:30;;;;;;;;;;;;;;;;;;5023879;28;92902;-70
2023/07/07 05:46:55;;;;;;;;;;;;;;;;;;5020855;28;93289;-70
2023/07/07 05:49:20;;;;;;;;;;;;;;;;;;5020844;28;92706;-70
2023/07/07 05:51:45;;;;;;;;;;;;;;;;;;5013968;27;93008;-69
2023/07/07 05:54:11;;;;;;;;;;;;;;;;;;5020326;28;93662;-69
2023/07/07 05:56:36;;;;;;;;;;;;;;;;;;5016758;28;93661;-69
2023/07/07 05:59:02;;;;;;;;;;;;;;;;;;5018858;28;92912;-69
2023/07/07 06:01:28;;;;;;;;;;;;;;;;;;5018710;28;92251;-69
2023/07/07 06:03:53;;;;;;;;;;;;;;;;;;5017369;27;92932;-69
2023/07/07 06:06:18;;;;;;;;;;;;;;;;;;5022274;28;93698;-69
2023/07/07 06:08:44;;;;;;;;;;;;;;;;;;5019620;28;92738;-69
2023/07/07 06:11:09;;;;;;;;;;;;;;;;;;5024383;27;92804;-70
2023/07/07 06:13:35;;;;;;;;;;;;;;;;;;5020627;28;91561;-70
2023/07/07 06:16:00;;;;;;;;;;;;;;;;;;5022601;28;93829;-70
2023/07/07 06:18:25;;;;;;;;;;;;;;;;;;5020644;28;93419;-70
2023/07/07 06:20:52;;;;;;;;;;;;;;;;;;5021287;28;93523;-70
2023/07/07 06:23:18;;;;;;;;;;;;;;;;;;5021318;28;95500;-70
2023/07/07 06:25:43;;;;;;;;;;;;;;;;;;5026275;28;93873;-71
2023/07/07 06:28:09;;;;;;;;;;;;;;;;;;5021940;28;95731;-73
2023/07/07 06:30:34;;;;;;;;;;;;;;;;;;5023344;28;92927;-73
2023/07/07 06:32:59;;;;;;;;;;;;;;;;;;5020164;27;92900;-68
2023/07/07 06:35:27;;;;;;;;;;;;;;;;;;5020909;27;93387;-70
2023/07/07 06:37:52;;;;;;;;;;;;;;;;;;5022310;28;92080;-70
2023/07/07 06:40:17;;;;;;;;;;;;;;;;;;5021792;28;92724;-72
2023/07/07 06:42:43;;;;;;;;;;;;;;;;;;5019464;28;94255;-71
2023/07/07 06:45:08;;;;;;;;;;;;;;;;;;5017320;28;95986;-72
2023/07/07 06:47:33;;;;;;;;;;;;;;;;;;5025433;28;94032;-71
2023/07/07 06:49:59;;;;;;;;;;;;;;;;;;5018271;27;95279;-71
2023/07/07 06:52:24;;;;;;;;;;;;;;;;;;5019261;28;92884;-70
2023/07/07 06:54:49;;;;;;;;;;;;;;;;;;5038812;27;93755;-69
2023/07/07 06:57:14;;;;;;;;;;;;;;;;;;5020072;28;94041;-70
2023/07/07 06:59:40;;;;;;;;;;;;;;;;;;5020830;28;92746;-69
2023/07/07 07:02:05;;;;;;;;;;;;;;;;;;5021126;28;92751;-69
2023/07/07 07:04:30;;;;;;;;;;;;;;;;;;5022693;28;92946;-71
2023/07/07 07:06:57;;;;;;;;;;;;;;;;;;5020397;27;92714;-69
2023/07/07 07:09:22;;;;;;;;;;;;;;;;;;5022680;28;95103;-70
2023/07/07 07:11:47;;;;;;;;;;;;;;;;;;5017169;28;92353;-69
2023/07/07 07:14:12;;;;;;;;;;;;;;;;;;5012528;27;93061;-68
2023/07/07 07:16:38;;;;;;;;;;;;;;;;;;5018772;28;94217;-68
2023/07/07 07:19:03;;;;;;;;;;;;;;;;;;5019087;27;92903;-68
2023/07/07 07:21:28;;;;;;;;;;;;;;;;;;5018552;28;94240;-71
2023/07/07 07:23:53;;;;;;;;;;;;;;;;;;5016143;28;94017;-71
2023/07/07 07:26:19;;;;;;;;;;;;;;;;;;5019701;28;92295;-71
2023/07/07 07:28:44;;;;;;;;;;;;;;;;;;5021466;28;92786;-70
2023/07/07 07:31:10;;;;;;;;;;;;;;;;;;5019366;27;92906;-71
2023/07/07 07:33:35;;;;;;;;;;;;;;;;;;5017388;27;93590;-71
2023/07/07 07:36:01;;;;;;;;;;;;;;;;;;5019700;28;92815;-73
2023/07/07 07:38:26;;;;;;;;;;;;;;;;;;5021644;28;92265;-73
2023/07/07 07:40:52;;;;;;;;;;;;;;;;;;5019787;27;93166;-72
2023/07/07 07:43:17;;;;;;;;;;;;;;;;;;5019063;28;92563;-71
2023/07/07 07:45:42;;;;;;;;;;;;;;;;;;5021043;27;92550;-70
2023/07/07 07:48:08;;;;;;;;;;;;;;;;;;5017765;28;92827;-70
2023/07/07 07:50:33;;;;;;;;;;;;;;;;;;5017393;28;92639;-70
2023/07/07 07:52:59;;;;;;;;;;;;;;;;;;5021556;27;92528;-70
2023/07/07 07:55:25;;;;;;;;;;;;;;;;;;5022317;27;93210;-71
2023/07/07 07:57:51;;;;;;;;;;;;;;;;;;5019915;28;93318;-70
2023/07/07 08:00:16;;;;;;;;;;;;;;;;;;5018534;28;93359;-69
2023/07/07 08:02:41;;;;;;;;;;;;;;;;;;5021928;28;93659;-72
2023/07/07 08:05:07;;;;;;;;;;;;;;;;;;5014433;28;92755;-72
2023/07/07 08:07:33;;;;;;;;;;;;;;;;;;5020031;28;94275;-72
2023/07/07 08:09:58;;;;;;;;;;;;;;;;;;5020216;28;93928;-72
2023/07/07 08:12:23;;;;;;;;;;;;;;;;;;5023784;28;93768;-72
2023/07/07 08:14:49;;;;;;;;;;;;;;;;;;5019078;28;92482;-72
2023/07/07 08:17:14;;;;;;;;;;;;;;;;;;5019846;27;93091;-71
2023/07/07 08:19:41;;;;;;;;;;;;;;;;;;5019047;28;93456;-68
2023/07/07 08:22:14;;;;;;;;;;;;;;;;;;5017004;27;94654;-71
2023/07/07 08:24:40;;;;;;;;;;;;;;;;;;5022395;27;93959;-70
2023/07/07 08:27:07;;;;;;;;;;;;;;;;;;5012327;28;92302;-69
2023/07/07 08:29:32;;;;;;;;;;;;;;;;;;5020277;28;92851;-70
2023/07/07 08:31:57;;;;;;;;;;;;;;;;;;5022526;28;92745;-70
2023/07/07 08:34:23;;;;;;;;;;;;;;;;;;5025056;27;95159;-70
2023/07/07 08:36:48;;;;;;;;;;;;;;;;;;5022753;27;93997;-70
2023/07/07 08:39:15;;;;;;;;;;;;;;;;;;5016592;28;93052;-70
2023/07/07 08:41:45;;;;;;;;;;;;;;;;;;5020217;28;93769;-69
2023/07/07 08:44:12;;;;;;;;;;;;;;;;;;5017673;27;94254;-70
2023/07/07 08:46:55;;;;;;;;;;;;;;;;;;5019469;28;95569;-69
2023/07/07 08:49:23;;;;;;;;;;;;;;;;;;5020907;28;92977;-70
2023/07/07 08:51:58;;;;;;;;;;;;;;;;;;5016106;28;93607;-70
2023/07/07 08:54:43;;;;;;;;;;;;;;;;;;5021226;27;95187;-70
2023/07/07 08:57:10;;;;;;;;;;;;;;;;;;5021900;28;93825;-69
2023/07/07 08:59:38;;;;;;;;;;;;;;;;;;5017419;28;95189;-69
2023/07/07 09:02:22;;;;;;;;;;;;;;;;;;5033885;27;95381;-69
2023/07/07 09:04:53;;;;;;;;;;;;;;;;;;5020049;28;92124;-69
2023/07/07 09:07:21;;;;;;;;;;;;;;;;;;5014231;28;92785;-69
2023/07/07 09:10:19;;;;;;;;;;;;;;;;;;5019478;28;93357;-70
2023/07/07 09:12:49;;;;;;;;;;;;;;;;;;4980282;27;93604;-70
2023/07/07 09:15:22;;;;;;;;;;;;;;;;;;5020022;28;93430;-71
2023/07/07 09:17:49;;;;;;;;;;;;;;;;;;5020678;27;93720;-70
2023/07/07 09:20:15;;;;;;;;;;;;;;;;;;5018372;28;92927;-69
2023/07/07 09:22:50;;;;;;;;;;;;;;;;;;5034870;27;96310;-69
2023/07/07 09:25:22;;;;;;;;;;;;;;;;;;5020406;28;92477;-68
2023/07/07 09:27:52;;;;;;;;;;;;;;;;;;5020795;27;95122;-69
2023/07/07 09:30:21;;;;;;;;;;;;;;;;;;5021123;28;93315;-68
2023/07/07 09:32:47;;;;;;;;;;;;;;;;;;5016022;27;92630;-69
2023/07/07 09:35:13;;;;;;;;;;;;;;;;;;5021035;27;93057;-70
2023/07/07 09:37:55;;;;;;;;;;;;;;;;;;5020196;27;93776;-70
2023/07/07 09:40:26;;;;;;;;;;;;;;;;;;5018377;28;92271;-69
2023/07/07 09:43:26;;;;;;;;;;;;;;;;;;5024718;28;92680;-70
2023/07/07 09:46:02;;;;;;;;;;;;;;;;;;4931510;28;93049;-70
2023/07/07 09:48:36;;;;;;;;;;;;;;;;;;5007906;28;93241;-70
2023/07/07 09:51:17;;;;;;;;;;;;;;;;;;5018468;28;95215;-70
2023/07/07 09:53:43;;;;;;;;;;;;;;;;;;5020090;28;92274;-69
2023/07/07 09:56:10;;;;;;;;;;;;;;;;;;5022973;27;92995;-68
2023/07/07 09:58:50;;;;;;;;;;;;;;;;;;5020338;27;92666;-70
2023/07/07 10:01:16;;;;;;;;;;;;;;;;;;5018377;27;92713;-70
2023/07/07 10:03:43;;;;;;;;;;;;;;;;;;5024125;27;94634;-70
2023/07/07 10:06:24;;;;;;;;;;;;;;;;;;5025947;27;94122;-71
2023/07/07 10:08:49;;;;;;;;;;;;;;;;;;5023712;28;92748;-70
2023/07/07 10:11:20;;;;;;;;;;;;;;;;;;5018382;28;93100;-70
2023/07/07 10:13:46;;;;;;;;;;;;;;;;;;5020425;28;92333;-72
2023/07/07 10:16:19;;;;;;;;;;;;;;;;;;5017323;28;92694;-70
2023/07/07 10:18:44;;;;;;;;;;;;;;;;;;5023577;28;93155;-69
2023/07/07 10:21:10;;;;;;;;;;;;;;;;;;5022403;28;92350;-72
2023/07/07 10:23:38;;;;;;;;;;;;;;;;;;5020109;27;92523;-72
2023/07/07 10:26:03;;;;;;;;;;;;;;;;;;5016932;28;93936;-68
2023/07/07 10:28:29;;;;;;;;;;;;;;;;;;5019469;28;96075;-71
2023/07/07 10:30:55;;;;;;;;;;;;;;;;;;5020025;28;93961;-74
2023/07/07 10:33:21;;;;;;;;;;;;;;;;;;5020661;27;92360;-73
2023/07/07 10:35:47;;;;;;;;;;;;;;;;;;5020034;28;93989;-72
2023/07/07 10:38:12;;;;;;;;;;;;;;;;;;5023586;27;93238;-70
2023/07/07 10:40:40;;;;;;;;;;;;;;;;;;5017518;28;93574;-71
2023/07/07 10:43:05;;;;;;;;;;;;;;;;;;5021376;28;92857;-70
2023/07/07 10:45:31;;;;;;;;;;;;;;;;;;5021256;28;92413;-70
2023/07/07 10:47:56;;;;;;;;;;;;;;;;;;5026712;28;92374;-73
2023/07/07 10:50:25;;;;;;;;;;;;;;;;;;5023462;28;93515;-70
2023/07/07 10:53:05;;;;;;;;;;;;;;;;;;5021874;27;94732;-76
2023/07/07 10:55:37;;;;;;;;;;;;;;;;;;5021397;28;93301;-75
2023/07/07 10:58:20;;;;;;;;;;;;;;;;;;5023715;28;92246;-76
2023/07/07 11:00:45;;;;;;;;;;;;;;;;;;5020394;28;92300;-72
2023/07/07 11:03:29;;;;;;;;;;;;;;;;;;5023159;27;95429;-70
2023/07/07 11:06:00;;;;;;;;;;;;;;;;;;5008788;28;93808;-71
2023/07/07 11:08:36;;;;;;;;;;;;;;;;;;5022606;27;92232;-70
2023/07/07 11:11:27;;;;;;;;;;;;;;;;;;5023142;28;92474;-67
2023/07/07 11:13:58;;;;;;;;;;;;;;;;;;4984734;28;92334;-70
2023/07/07 11:16:36;;;;;;;;;;;;;;;;;;5017486;28;93065;-69
2023/07/07 11:19:16;;;;;;;;;;;;;;;;;;5021552;28;93741;-69
2023/07/07 11:21:54;;;;;;;;;;;;;;;;;;5019487;27;92502;-71
2023/07/07 11:24:25;;;;;;;;;;;;;;;;;;5021271;28;93106;-71
2023/07/07 11:27:09;;;;;;;;;;;;;;;;;;5019360;28;93091;-70
2023/07/07 11:29:43;;;;;;;;;;;;;;;;;;5018960;28;92773;-70
2023/07/07 11:32:22;;;;;;;;;;;;;;;;;;5019605;28;92860;-69
2023/07/07 11:35:07;;;;;;;;;;;;;;;;;;5023348;28;93847;-69
2023/07/07 11:37:42;;;;;;;;;;;;;;;;;;5019949;28;92888;-70
2023/07/07 11:40:24;;;;;;;;;;;;;;;;;;5018740;28;93211;-71
2023/07/07 11:43:17;;;;;;;;;;;;;;;;;;5013109;28;92279;-71
2023/07/07 11:46:01;;;;;;;;;;;;;;;;;;5020315;28;93909;-71
2023/07/07 11:48:29;;;;;;;;;;;;;;;;;;5020013;28;93022;-71
2023/07/07 11:50:54;;;;;;;;;;;;;;;;;;5020979;28;92228;-71
2023/07/07 11:53:34;;;;;;;;;;;;;;;;;;5019228;28;92929;-71
2023/07/07 11:56:05;;;;;;;;;;;;;;;;;;5022065;28;93924;-72
2023/07/07 11:58:33;;;;;;;;;;;;;;;;;;5025919;28;92802;-72
2023/07/07 12:00:59;;;;;;;;;;;;;;;;;;5021538;28;96450;-72
2023/07/07 12:03:27;;;;;;;;;;;;;;;;;;5021835;27;92533;-72
2023/07/07 12:05:54;;;;;;;;;;;;;;;;;;5019457;27;92959;-71
2023/07/07 12:08:21;;;;;;;;;;;;;;;;;;5012464;28;94318;-71
2023/07/07 12:10:50;;;;;;;;;;;;;;;;;;5018077;27;93813;-72
2023/07/07 12:13:22;;;;;;;;;;;;;;;;;;5018630;27;93337;-72
2023/07/07 12:15:50;;;;;;;;;;;;;;;;;;5019677;28;92214;-72
2023/07/07 12:18:36;;;;;;;;;;;;;;;;;;5019546;27;92738;-72
2023/07/07 12:21:11;;;;;;;;;;;;;;;;;;5024051;28;92800;-72
2023/07/07 12:23:38;;;;;;;;;;;;;;;;;;5017093;28;92990;-72
2023/07/07 12:26:19;;;;;;;;;;;;;;;;;;5018938;28;93057;-72
2023/07/07 12:28:48;;;;;;;;;;;;;;;;;;5021097;28;92911;-72
2023/07/07 12:31:14;;;;;;;;;;;;;;;;;;5017489;28;92788;-72
2023/07/07 12:33:40;;;;;;;;;;;;;;;;;;5019703;28;92938;-72
2023/07/07 12:36:06;;;;;;;;;;;;;;;;;;5017323;28;94578;-73
2023/07/07 12:38:33;;;;;;;;;;;;;;;;;;5020592;28;92812;-72
2023/07/07 12:41:13;;;;;;;;;;;;;;;;;;5020585;27;93633;-73
2023/07/07 12:43:39;;;;;;;;;;;;;;;;;;5017127;28;93908;-72
2023/07/07 12:46:08;;;;;;;;;;;;;;;;;;5018134;28;92275;-72
2023/07/07 12:48:33;;;;;;;;;;;;;;;;;;5020182;27;95636;-69
2023/07/07 12:51:00;;;;;;;;;;;;;;;;;;5018780;27;93311;-71
2023/07/07 12:53:41;;;;;;;;;;;;;;;;;;5017216;28;93652;-71
2023/07/07 12:56:06;;;;;;;;;;;;;;;;;;5016028;28;93022;-72
2023/07/07 12:58:31;;;;;;;;;;;;;;;;;;5020652;28;92181;-72
2023/07/07 13:01:10;;;;;;;;;;;;;;;;;;5015294;28;93203;-72
2023/07/07 13:03:58;;;;;;;;;;;;;;;;;;5023143;28;92955;-71
2023/07/07 13:06:23;;;;;;;;;;;;;;;;;;5017971;27;93302;-72
2023/07/07 13:09:01;;;;;;;;;;;;;;;;;;5021019;28;93681;-71
2023/07/07 13:11:35;;;;;;;;;;;;;;;;;;5015977;28;94055;-69
2023/07/07 13:14:01;;;;;;;;;;;;;;;;;;5018702;28;92926;-70
2023/07/07 13:16:27;;;;;;;;;;;;;;;;;;5023390;27;93857;-69
2023/07/07 13:18:52;;;;;;;;;;;;;;;;;;5023234;28;92006;-72
2023/07/07 13:21:19;;;;;;;;;;;;;;;;;;5018917;28;94913;-72
2023/07/07 13:23:48;;;;;;;;;;;;;;;;;;5022788;27;93075;-70
2023/07/07 13:26:27;;;;;;;;;;;;;;;;;;5026109;27;93941;-71
2023/07/07 13:28:57;;;;;;;;;;;;;;;;;;5015807;28;93404;-71
2023/07/07 13:31:25;;;;;;;;;;;;;;;;;;5019737;27;92286;-72
2023/07/07 13:33:50;;;;;;;;;;;;;;;;;;5019545;28;94011;-71
2023/07/07 13:36:15;;;;;;;;;;;;;;;;;;5014775;28;93853;-73
2023/07/07 13:38:44;;;;;;;;;;;;;;;;;;5018665;28;93287;-73
2023/07/07 13:41:12;;;;;;;;;;;;;;;;;;5021794;27;92678;-72
2023/07/07 13:43:52;;;;;;;;;;;;;;;;;;5036455;27;95066;-72
2023/07/07 13:46:23;;;;;;;;;;;;;;;;;;5016778;28;93109;-68
2023/07/07 13:49:01;;;;;;;;;;;;;;;;;;5023806;28;93737;-69
2023/07/07 13:51:26;;;;;;;;;;;;;;;;;;5020557;28;94420;-70
2023/07/07 13:53:51;;;;;;;;;;;;;;;;;;5022488;27;93141;-71
2023/07/07 13:56:17;;;;;;;;;;;;;;;;;;5021172;28;92885;-69
2023/07/07 13:58:43;;;;;;;;;;;;;;;;;;5022464;28;92522;-68
2023/07/07 14:01:17;;;;;;;;;;;;;;;;;;5018749;28;93741;-68
2023/07/07 14:03:46;;;;;;;;;;;;;;;;;;5021634;28;93240;-71
2023/07/07 14:06:13;;;;;;;;;;;;;;;;;;5017332;28;93222;-71
2023/07/07 14:08:38;;;;;;;;;;;;;;;;;;5019329;28;93752;-71
2023/07/07 14:11:05;;;;;;;;;;;;;;;;;;5025972;27;94392;-71
2023/07/07 14:13:31;;;;;;;;;;;;;;;;;;5023246;27;92555;-70
2023/07/07 14:16:00;;;;;;;;;;;;;;;;;;5022147;28;93828;-70
2023/07/07 14:18:28;;;;;;;;;;;;;;;;;;5023920;27;92528;-71
2023/07/07 14:20:54;;;;;;;;;;;;;;;;;;5020180;27;93905;-74
2023/07/07 14:23:20;;;;;;;;;;;;;;;;;;5022355;27;92887;-73
2023/07/07 14:25:47;;;;;;;;;;;;;;;;;;5022451;27;92231;-74
2023/07/07 14:28:17;;;;;;;;;;;;;;;;;;5018875;28;92775;-74
2023/07/07 14:30:50;;;;;;;;;;;;;;;;;;5019690;27;95805;-74
2023/07/07 14:33:19;;;;;;;;;;;;;;;;;;5023141;27;91478;-74
2023/07/07 14:35:45;;;;;;;;;;;;;;;;;;5033208;27;94110;-74
2023/07/07 14:38:22;;;;;;;;;;;;;;;;;;5023756;28;94080;-73
2023/07/07 14:40:47;;;;;;;;;;;;;;;;;;5015319;28;93769;-74
2023/07/07 14:43:18;;;;;;;;;;;;;;;;;;5021074;28;93306;-74
2023/07/07 14:45:43;;;;;;;;;;;;;;;;;;5022492;28;92661;-74
2023/07/07 14:48:19;;;;;;;;;;;;;;;;;;5024055;28;93033;-75
2023/07/07 14:50:44;;;;;;;;;;;;;;;;;;5020149;28;92965;-75
2023/07/07 14:53:12;;;;;;;;;;;;;;;;;;5025477;28;94320;-73
2023/07/07 14:55:38;;;;;;;;;;;;;;;;;;5021550;27;93046;-73
2023/07/07 14:58:12;;;;;;;;;;;;;;;;;;5024137;27;92538;-71
2023/07/07 15:00:40;;;;;;;;;;;;;;;;;;5018881;27;92273;-71
2023/07/07 15:03:23;;;;;;;;;;;;;;;;;;5016478;28;95432;-73
2023/07/07 15:05:49;;;;;;;;;;;;;;;;;;5020207;28;94090;-73
2023/07/07 15:08:15;;;;;;;;;;;;;;;;;;5020441;28;93189;-73
2023/07/07 15:10:42;;;;;;;;;;;;;;;;;;5021056;28;92566;-76
2023/07/07 15:13:18;;;;;;;;;;;;;;;;;;5020250;27;93478;-73
2023/07/07 15:15:43;;;;;;;;;;;;;;;;;;5022977;28;93513;-74
2023/07/07 15:18:10;;;;;;;;;;;;;;;;;;5021002;27;93162;-73
2023/07/07 15:20:35;;;;;;;;;;;;;;;;;;5022536;27;92388;-74
2023/07/07 15:23:01;;;;;;;;;;;;;;;;;;5023904;27;91606;-74
2023/07/07 15:25:26;;;;;;;;;;;;;;;;;;5023643;28;92643;-73
2023/07/07 15:27:51;;;;;;;;;;;;;;;;;;5019377;28;92760;-73
2023/07/07 15:30:16;;;;;;;;;;;;;;;;;;5020716;28;94137;-74
2023/07/07 15:32:42;;;;;;;;;;;;;;;;;;5019428;28;92677;-75
2023/07/07 15:35:12;;;;;;;;;;;;;;;;;;5012743;28;95579;-74
2023/07/07 15:37:37;;;;;;;;;;;;;;;;;;5028172;27;93009;-73
2023/07/07 15:40:07;;;;;;;;;;;;;;;;;;5021011;27;92733;-74
2023/07/07 15:42:32;;;;;;;;;;;;;;;;;;5023160;28;94553;-74
2023/07/07 15:44:57;;;;;;;;;;;;;;;;;;5013453;27;92914;-73
2023/07/07 15:47:23;;;;;;;;;;;;;;;;;;5023510;28;93451;-73
2023/07/07 15:49:48;;;;;;;;;;;;;;;;;;5021423;28;93044;-72
2023/07/07 15:52:14;;;;;;;;;;;;;;;;;;5020645;28;92978;-71
2023/07/07 15:54:40;;;;;;;;;;;;;;;;;;5017433;28;93839;-71
2023/07/07 15:57:08;;;;;;;;;;;;;;;;;;5018631;28;92966;-71
2023/07/07 15:59:33;;;;;;;;;;;;;;;;;;5026101;28;93636;-72
2023/07/07 16:01:58;;;;;;;;;;;;;;;;;;5021669;28;94251;-73
2023/07/07 16:04:23;;;;;;;;;;;;;;;;;;5019740;28;93531;-74
2023/07/07 16:06:50;;;;;;;;;;;;;;;;;;5018738;28;93376;-71
2023/07/07 16:09:16;;;;;;;;;;;;;;;;;;5022033;28;92788;-72
2023/07/07 16:11:42;;;;;;;;;;;;;;;;;;5021720;27;92234;-70
2023/07/07 16:14:07;;;;;;;;;;;;;;;;;;5022931;28;92237;-70
2023/07/07 16:16:34;;;;;;;;;;;;;;;;;;5021145;28;93596;-71
2023/07/07 16:19:00;;;;;;;;;;;;;;;;;;5017883;27;93251;-71
2023/07/07 16:21:26;;;;;;;;;;;;;;;;;;5024407;28;93328;-70
2023/07/07 16:23:51;;;;;;;;;;;;;;;;;;5021276;28;92722;-71
2023/07/07 16:26:20;;;;;;;;;;;;;;;;;;5034781;27;95318;-71
2023/07/07 16:28:45;;;;;;;;;;;;;;;;;;5019973;28;93119;-75
2023/07/07 16:31:10;;;;;;;;;;;;;;;;;;5021379;28;92511;-70
2023/07/07 16:33:35;;;;;;;;;;;;;;;;;;5016167;27;94487;-70
2023/07/07 16:36:01;;;;;;;;;;;;;;;;;;5022553;28;94255;-74
2023/07/07 16:38:26;;;;;;;;;;;;;;;;;;5020253;28;93256;-75
2023/07/07 16:40:51;;;;;;;;;;;;;;;;;;5023684;28;93150;-74
2023/07/07 16:43:16;;;;;;;;;;;;;;;;;;5017968;27;93686;-75
2023/07/07 16:45:44;;;;;;;;;;;;;;;;;;5016768;28;94993;-73
2023/07/07 16:48:13;;;;;;;;;;;;;;;;;;5021225;28;92830;-74
2023/07/07 16:50:38;;;;;;;;;;;;;;;;;;5019403;27;93307;-72
2023/07/07 16:53:03;;;;;;;;;;;;;;;;;;5016469;28;95219;-70